createdAt,value
2018-06-11T00:01:08.790Z,7.37
2018-06-11T00:03:37.193Z,7.72
2018-06-11T00:06:04.657Z,5.20
2018-06-11T00:08:32.113Z,11.55
2018-06-11T00:10:59.652Z,12.73
2018-06-11T00:13:27.453Z,11.63
2018-06-11T00:15:54.952Z,14.55
2018-06-11T00:18:22.387Z,8.00
2018-06-11T00:20:50.943Z,15.10
2018-06-11T00:23:19.324Z,17.20
2018-06-11T00:25:46.800Z,10.77
2018-06-11T00:28:14.267Z,9.55
2018-06-11T00:30:41.738Z,9.05
2018-06-11T00:33:09.220Z,16.75
2018-06-11T00:35:36.693Z,19.17
2018-06-11T00:38:05.216Z,16.25
2018-06-11T00:43:22.922Z,10.73
2018-06-11T00:45:50.477Z,17.45
2018-06-11T00:48:17.976Z,11.05
2018-06-11T00:50:45.437Z,12.73
2018-06-11T00:53:12.912Z,9.82
2018-06-11T00:55:40.459Z,11.57
2018-06-11T00:58:07.909Z,9.82
2018-06-11T01:00:35.385Z,12.88
2018-06-11T01:03:03.153Z,11.93
2018-06-11T01:05:30.729Z,23.73
2018-06-11T01:07:58.168Z,19.17
2018-06-11T01:10:26.584Z,18.58
2018-06-11T01:12:53.985Z,21.10
2018-06-11T01:15:21.456Z,9.30
2018-06-11T01:17:48.889Z,8.82
2018-06-11T01:20:16.543Z,20.55
2018-06-11T01:22:44.588Z,12.70
2018-06-11T01:25:12.015Z,23.58
2018-06-11T01:27:39.447Z,10.63
2018-06-11T01:30:06.897Z,10.30
2018-06-11T01:32:34.295Z,11.32
2018-06-11T01:35:01.707Z,10.13
2018-06-11T01:37:29.188Z,14.20
2018-06-11T01:39:56.786Z,11.05
2018-06-11T01:42:24.399Z,14.93
2018-06-11T01:44:51.878Z,14.87
2018-06-11T01:47:19.365Z,6.60
2018-06-11T01:49:46.823Z,10.13
2018-06-11T01:52:14.276Z,12.02
2018-06-11T01:54:42.445Z,10.38
2018-06-11T01:57:09.876Z,13.40
2018-06-11T01:59:38.402Z,15.30
2018-06-11T02:02:05.880Z,7.68
2018-06-11T02:04:34.029Z,8.30
2018-06-11T02:07:01.753Z,10.32
2018-06-11T02:09:29.161Z,9.45
2018-06-11T02:11:56.947Z,9.05
2018-06-11T02:14:24.387Z,10.38
2018-06-11T02:16:51.833Z,6.07
2018-06-11T02:19:19.228Z,9.45
2018-06-11T02:21:46.674Z,14.75
2018-06-11T02:24:14.089Z,10.98
2018-06-11T02:26:41.569Z,15.02
2018-06-11T02:29:09.062Z,8.38
2018-06-11T02:31:36.510Z,8.00
2018-06-11T02:34:03.905Z,7.97
2018-06-11T02:36:31.344Z,9.77
2018-06-11T02:38:59.734Z,17.48
2018-06-11T02:41:27.192Z,19.35
2018-06-11T02:43:54.667Z,18.70
2018-06-11T02:46:22.123Z,15.30
2018-06-11T02:48:50.712Z,6.53
2018-06-11T02:51:18.187Z,16.80
2018-06-11T02:53:46.313Z,10.43
2018-06-11T02:56:13.788Z,8.20
2018-06-11T02:58:41.256Z,9.13
2018-06-11T03:01:08.801Z,9.35
2018-06-11T03:03:36.282Z,9.00
2018-06-11T03:06:03.724Z,12.95
2018-06-11T03:08:31.267Z,20.95
2018-06-11T03:10:58.744Z,7.85
2018-06-11T03:13:27.881Z,9.77
2018-06-11T03:15:55.290Z,10.63
2018-06-11T03:18:22.780Z,21.35
2018-06-11T03:20:50.244Z,9.82
2018-06-11T03:23:17.744Z,10.75
2018-06-11T03:25:45.163Z,6.37
2018-06-11T03:28:12.830Z,10.90
2018-06-11T03:30:40.309Z,15.05
2018-06-11T03:33:07.967Z,7.25
2018-06-11T03:35:35.511Z,16.40
2018-06-11T03:38:02.920Z,7.07
2018-06-11T03:40:30.396Z,9.27
2018-06-11T03:42:57.942Z,15.00
2018-06-11T03:45:26.017Z,10.90
2018-06-11T03:47:53.526Z,11.60
2018-06-11T03:50:20.984Z,15.90
2018-06-11T03:52:48.541Z,12.50
2018-06-11T03:55:15.951Z,9.35
2018-06-11T03:57:43.383Z,12.55
2018-06-11T04:00:10.846Z,10.45
2018-06-11T04:02:39.420Z,13.15
2018-06-11T04:05:06.867Z,10.40
2018-06-11T04:07:34.340Z,11.55
2018-06-11T04:10:01.804Z,9.70
2018-06-11T04:12:30.393Z,9.38
2018-06-11T04:14:58.029Z,11.90
2018-06-11T04:17:29.177Z,19.50
2018-06-11T04:19:56.631Z,18.67
2018-06-11T04:22:24.102Z,8.77
2018-06-11T04:24:51.614Z,10.73
2018-06-11T04:27:19.253Z,10.75
2018-06-11T04:29:46.731Z,14.63
2018-06-11T04:32:16.643Z,10.40
2018-06-11T04:34:44.140Z,11.12
2018-06-11T04:37:11.683Z,10.02
2018-06-11T04:39:39.508Z,14.55
2018-06-11T04:42:07.607Z,9.98
2018-06-11T04:44:35.109Z,6.50
2018-06-11T04:47:02.584Z,17.33
2018-06-11T04:49:30.070Z,13.23
2018-06-11T04:51:58.444Z,7.95
2018-06-11T04:54:25.911Z,8.95
2018-06-11T04:56:53.590Z,6.62
2018-06-11T04:59:21.125Z,9.90
2018-06-11T05:01:52.435Z,12.25
2018-06-11T05:04:20.741Z,15.70
2018-06-11T05:06:48.760Z,11.18
2018-06-11T05:09:16.199Z,10.65
2018-06-11T05:11:43.632Z,11.50
2018-06-11T05:14:11.067Z,7.97
2018-06-11T05:16:39.564Z,12.43
2018-06-11T05:19:07.505Z,7.75
2018-06-11T05:21:35.077Z,10.63
2018-06-11T05:24:02.471Z,7.12
2018-06-11T05:26:29.951Z,16.48
2018-06-11T05:28:57.442Z,11.55
2018-06-11T05:31:24.990Z,13.50
2018-06-11T05:33:52.475Z,10.48
2018-06-11T05:36:19.985Z,12.68
2018-06-11T05:38:48.362Z,17.92
2018-06-11T05:41:16.419Z,14.00
2018-06-11T05:43:43.956Z,11.48
2018-06-11T05:46:11.387Z,10.02
2018-06-11T05:48:39.052Z,8.90
2018-06-11T05:51:06.505Z,16.25
2018-06-11T05:53:35.354Z,8.90
2018-06-11T05:56:02.952Z,14.43
2018-06-11T05:58:37.131Z,16.50
2018-06-11T06:01:04.571Z,15.48
2018-06-11T06:03:32.221Z,9.80
2018-06-11T06:05:59.755Z,11.55
2018-06-11T06:08:27.397Z,14.50
2018-06-11T06:10:54.818Z,8.70
2018-06-11T06:13:22.276Z,20.12
2018-06-11T06:15:49.689Z,50.12
2018-06-11T06:18:17.150Z,20.00
2018-06-11T06:20:44.623Z,11.12
2018-06-11T06:23:12.111Z,21.08
2018-06-11T06:25:39.640Z,10.32
2018-06-11T06:28:07.103Z,15.38
2018-06-11T06:30:34.595Z,16.00
2018-06-11T06:33:02.070Z,8.75
2018-06-11T06:35:29.541Z,9.70
2018-06-11T06:37:57.057Z,18.17
2018-06-11T06:40:24.553Z,13.30
2018-06-11T06:42:52.039Z,18.37
2018-06-11T06:45:20.475Z,15.48
2018-06-11T06:47:47.931Z,10.15
2018-06-11T06:50:17.792Z,14.35
2018-06-11T06:52:45.533Z,12.85
2018-06-11T06:55:13.186Z,12.52
2018-06-11T06:57:40.725Z,16.05
2018-06-11T07:00:08.208Z,8.13
2018-06-11T07:02:35.665Z,28.35
2018-06-11T07:05:03.131Z,11.95
2018-06-11T07:07:30.577Z,5.85
2018-06-11T07:09:58.144Z,8.00
2018-06-11T07:12:25.545Z,9.20
2018-06-11T07:14:53.068Z,13.32
2018-06-11T07:17:20.481Z,10.73
2018-06-11T07:19:47.971Z,16.27
2018-06-11T07:22:15.418Z,8.82
2018-06-11T07:24:42.860Z,12.93
2018-06-11T07:27:10.331Z,11.65
2018-06-11T07:29:38.159Z,11.07
2018-06-11T07:32:06.466Z,12.20
2018-06-11T07:34:36.199Z,19.12
2018-06-11T07:37:03.687Z,15.43
2018-06-11T07:39:31.147Z,12.35
2018-06-11T07:41:58.629Z,12.43
2018-06-11T07:44:26.123Z,8.95
2018-06-11T07:46:54.207Z,13.90
2018-06-11T07:49:21.683Z,15.57
2018-06-11T07:51:49.119Z,15.55
2018-06-11T07:54:16.592Z,18.60
2018-06-11T07:56:44.026Z,16.20
2018-06-11T07:59:11.520Z,14.65
2018-06-11T08:01:38.957Z,18.02
2018-06-11T08:04:07.247Z,11.05
2018-06-11T08:06:34.733Z,16.17
2018-06-11T08:09:02.251Z,13.73
2018-06-11T08:11:29.649Z,11.75
2018-06-11T08:13:57.826Z,17.92
2018-06-11T08:16:25.364Z,12.50
2018-06-11T08:18:52.760Z,15.98
2018-06-11T08:21:20.317Z,16.70
2018-06-11T08:23:47.797Z,7.22
2018-06-11T08:26:15.197Z,6.22
2018-06-11T08:28:42.614Z,49.10
2018-06-11T08:31:10.133Z,42.03
2018-06-11T08:33:37.691Z,12.02
2018-06-11T08:36:05.164Z,13.27
2018-06-11T08:38:32.663Z,14.45
2018-06-11T08:41:00.113Z,7.95
2018-06-11T08:43:27.596Z,12.13
2018-06-11T08:45:55.020Z,11.88
2018-06-11T08:48:22.487Z,13.90
2018-06-11T08:50:51.175Z,12.23
2018-06-11T08:53:18.652Z,8.73
2018-06-11T08:55:46.054Z,9.50
2018-06-11T08:58:13.494Z,14.35
2018-06-11T09:00:40.915Z,10.98
2018-06-11T09:03:08.473Z,14.07
2018-06-11T09:05:35.961Z,9.30
2018-06-11T09:08:03.443Z,7.03
2018-06-11T09:10:31.122Z,8.93
2018-06-11T09:12:58.599Z,6.55
2018-06-11T09:15:26.117Z,4.53
2018-06-11T09:17:53.633Z,10.05
2018-06-11T09:20:21.224Z,4.05
2018-06-11T09:22:48.688Z,7.15
2018-06-11T09:25:16.245Z,5.40
2018-06-11T09:27:44.672Z,7.53
2018-06-11T09:30:12.129Z,6.60
2018-06-11T09:32:40.681Z,14.10
2018-06-11T09:35:08.135Z,7.30
2018-06-11T09:37:35.620Z,9.00
2018-06-11T09:40:03.023Z,7.43
2018-06-11T09:42:30.534Z,10.70
2018-06-11T09:44:59.463Z,38.20
2018-06-11T09:47:26.908Z,75.82
2018-06-11T09:49:54.672Z,60.12
2018-06-11T09:52:22.123Z,63.50
2018-06-11T09:54:49.611Z,47.70
2018-06-11T09:57:20.296Z,63.33
2018-06-11T09:59:47.781Z,38.45
2018-06-11T10:02:15.267Z,64.20
2018-06-11T10:04:42.730Z,63.20
2018-06-11T10:07:11.786Z,63.50
2018-06-11T10:09:39.243Z,63.42
2018-06-11T10:12:06.700Z,57.65
2018-06-11T10:14:34.142Z,43.95
2018-06-11T10:17:01.591Z,35.30
2018-06-11T10:19:29.293Z,41.88
2018-06-11T10:21:56.909Z,49.38
2018-06-11T10:24:24.352Z,60.72
2018-06-11T10:26:51.761Z,45.80
2018-06-11T10:29:19.231Z,37.92
2018-06-11T10:31:46.684Z,41.20
2018-06-11T10:34:14.189Z,48.58
2018-06-11T10:36:41.628Z,43.53
2018-06-11T10:39:09.140Z,46.15
2018-06-11T10:41:36.621Z,42.72
2018-06-11T10:44:04.167Z,37.47
2018-06-11T10:46:31.646Z,40.72
2018-06-11T10:48:59.091Z,44.50
2018-06-11T10:51:26.593Z,35.38
2018-06-11T10:53:54.054Z,35.45
2018-06-11T10:56:21.685Z,39.83
2018-06-11T10:58:49.132Z,44.45
2018-06-11T11:01:16.699Z,44.05
2018-06-11T11:03:44.232Z,40.53
2018-06-11T11:06:11.701Z,42.65
2018-06-11T11:08:39.856Z,38.88
2018-06-11T11:11:07.323Z,35.53
2018-06-11T11:13:34.879Z,39.30
2018-06-11T11:16:02.320Z,39.00
2018-06-11T11:18:30.590Z,47.30
2018-06-11T11:20:58.047Z,48.38
2018-06-11T11:23:25.496Z,51.15
2018-06-11T11:25:52.949Z,45.72
2018-06-11T11:28:20.427Z,49.47
2018-06-11T11:30:48.284Z,49.17
2018-06-11T11:33:16.607Z,73.75
2018-06-11T11:35:44.230Z,52.38
2018-06-11T11:38:12.520Z,53.45
2018-06-11T11:40:40.042Z,63.20
2018-06-11T11:43:07.550Z,65.68
2018-06-11T11:45:35.025Z,59.45
2018-06-11T11:48:02.642Z,51.37
2018-06-11T11:50:33.547Z,48.10
2018-06-11T11:53:00.986Z,51.88
2018-06-11T11:55:28.540Z,52.38
2018-06-11T11:57:56.025Z,56.65
2018-06-11T12:00:23.658Z,112.45
2018-06-11T12:02:51.144Z,65.30
2018-06-11T12:05:18.593Z,64.28
2018-06-11T12:07:46.068Z,59.20
2018-06-11T12:10:13.572Z,62.53
2018-06-11T12:12:41.181Z,67.25
2018-06-11T12:15:09.372Z,65.85
2018-06-11T12:17:37.258Z,52.95
2018-06-11T12:20:06.406Z,57.92
2018-06-11T12:22:33.862Z,62.65
2018-06-11T12:25:04.138Z,65.35
2018-06-11T12:27:31.564Z,67.62
2018-06-11T12:29:59.058Z,66.00
2018-06-11T12:32:27.313Z,76.07
2018-06-11T12:34:54.842Z,66.55
2018-06-11T12:37:22.295Z,67.37
2018-06-11T12:39:49.742Z,68.60
2018-06-11T12:42:17.217Z,74.78
2018-06-11T12:44:44.727Z,82.10
2018-06-11T12:47:12.387Z,68.18
2018-06-11T12:49:39.808Z,79.30
2018-06-11T12:52:07.279Z,63.30
2018-06-11T12:54:35.054Z,67.25
2018-06-11T12:57:02.588Z,75.18
2018-06-11T12:59:30.093Z,75.80
2018-06-11T13:01:57.667Z,76.80
2018-06-11T13:04:25.697Z,76.72
2018-06-11T13:06:53.155Z,71.50
2018-06-11T13:09:20.568Z,71.10
2018-06-11T13:11:48.032Z,69.68
2018-06-11T13:14:15.628Z,73.00
2018-06-11T13:16:44.177Z,25.27
2018-06-11T13:19:11.638Z,5.47
2018-06-11T13:21:40.388Z,4.78
2018-06-11T13:24:07.867Z,11.18
2018-06-11T13:26:35.362Z,4.45
2018-06-11T13:29:04.207Z,5.97
2018-06-11T13:31:31.650Z,4.80
2018-06-11T13:34:00.257Z,5.47
2018-06-11T13:36:27.700Z,15.95
2018-06-11T13:38:55.173Z,4.87
2018-06-11T13:41:23.793Z,8.40
2018-06-11T13:43:51.236Z,4.07
2018-06-11T13:46:19.688Z,9.63
2018-06-11T13:48:47.226Z,11.75
2018-06-11T13:51:14.633Z,3.72
2018-06-11T13:53:42.786Z,10.70
2018-06-11T13:56:10.203Z,9.80
2018-06-11T13:58:37.726Z,5.07
2018-06-11T14:01:05.209Z,6.47
2018-06-11T14:03:33.497Z,6.20
2018-06-11T14:06:01.106Z,5.45
2018-06-11T14:08:28.554Z,6.95
2018-06-11T14:10:56.016Z,6.78
2018-06-11T14:13:23.530Z,5.45
2018-06-11T14:15:51.541Z,6.87
2018-06-11T14:18:19.004Z,13.07
2018-06-11T14:20:46.790Z,8.32
2018-06-11T14:23:14.331Z,8.95
2018-06-11T14:25:41.752Z,9.30
2018-06-11T14:28:10.412Z,6.10
2018-06-11T14:30:37.872Z,9.23
2018-06-11T14:33:05.389Z,6.18
2018-06-11T14:35:32.934Z,6.65
2018-06-11T14:38:00.407Z,6.15
2018-06-11T14:40:27.873Z,7.68
2018-06-11T14:42:56.793Z,4.87
2018-06-11T14:45:24.227Z,7.30
2018-06-11T14:47:51.720Z,9.02
2018-06-11T14:50:20.080Z,5.00
2018-06-11T14:52:47.518Z,5.30
2018-06-11T14:55:16.064Z,6.30
2018-06-11T14:57:43.518Z,8.30
2018-06-11T15:00:11.922Z,6.12
2018-06-11T15:02:40.145Z,4.35
2018-06-11T15:05:07.600Z,7.15
2018-06-11T15:07:36.557Z,8.25
2018-06-11T15:10:04.866Z,5.55
2018-06-11T15:12:32.365Z,9.93
2018-06-11T15:14:59.834Z,11.80
2018-06-11T15:17:27.999Z,10.55
2018-06-11T15:19:56.030Z,15.52
2018-06-11T15:22:23.480Z,6.75
2018-06-11T15:24:52.828Z,6.97
2018-06-11T15:27:20.283Z,9.23
2018-06-11T15:29:47.813Z,6.28
2018-06-11T15:32:15.239Z,5.68
2018-06-11T15:34:42.839Z,3.90
2018-06-11T15:37:10.439Z,6.12
2018-06-11T15:39:37.890Z,10.95
2018-06-11T15:42:05.450Z,8.50
2018-06-11T15:44:32.949Z,4.87
2018-06-11T15:47:00.430Z,10.13
2018-06-11T15:49:27.874Z,10.05
2018-06-11T15:51:55.367Z,3.95
2018-06-11T15:54:22.932Z,12.13
2018-06-11T15:56:52.121Z,13.07
2018-06-11T15:59:19.579Z,9.02
2018-06-11T16:01:47.065Z,4.18
2018-06-11T16:04:14.586Z,11.40
2018-06-11T16:06:43.230Z,13.15
2018-06-11T16:09:10.819Z,6.37
2018-06-11T16:11:39.739Z,7.68
2018-06-11T16:14:07.359Z,3.50
2018-06-11T16:16:34.899Z,6.70
2018-06-11T16:19:03.269Z,8.70
2018-06-11T16:21:30.736Z,8.48
2018-06-11T16:23:58.229Z,11.82
2018-06-11T16:26:25.665Z,7.75
2018-06-11T16:28:53.908Z,6.00
2018-06-11T16:31:21.388Z,10.38
2018-06-11T16:33:50.701Z,7.55
2018-06-11T16:36:18.174Z,4.45
2018-06-11T16:38:45.712Z,6.22
2018-06-11T16:41:13.234Z,6.70
2018-06-11T16:43:40.852Z,5.87
2018-06-11T16:46:08.410Z,4.87
2018-06-11T16:48:35.917Z,4.32
2018-06-11T16:51:04.015Z,5.55
2018-06-11T16:53:31.457Z,5.53
2018-06-11T16:55:58.917Z,7.70
2018-06-11T16:58:26.330Z,7.75
2018-06-11T17:00:53.823Z,7.65
2018-06-11T17:03:21.265Z,17.48
2018-06-11T17:05:49.727Z,20.37
2018-06-11T17:08:17.890Z,4.00
2018-06-11T17:10:45.331Z,4.47
2018-06-11T17:13:12.905Z,6.90
2018-06-11T17:15:40.372Z,8.57
2018-06-11T17:18:07.824Z,11.93
2018-06-11T17:20:35.317Z,9.80
2018-06-11T17:23:02.757Z,13.98
2018-06-11T17:25:31.878Z,6.43
2018-06-11T17:27:59.284Z,9.38
2018-06-11T17:30:26.778Z,9.50
2018-06-11T17:32:54.243Z,5.45
2018-06-11T17:35:21.728Z,10.15
2018-06-11T17:37:49.163Z,11.77
2018-06-11T17:40:16.673Z,6.05
2018-06-11T17:42:44.148Z,5.82
2018-06-11T17:45:11.565Z,7.15
2018-06-11T17:47:38.984Z,10.18
2018-06-11T17:50:06.424Z,7.65
2018-06-11T17:52:33.833Z,7.00
2018-06-11T17:55:01.358Z,8.13
2018-06-11T17:57:29.033Z,13.30
2018-06-11T17:59:56.483Z,5.82
2018-06-11T18:02:23.900Z,8.63
2018-06-11T18:04:51.347Z,9.02
2018-06-11T18:07:18.830Z,6.32
2018-06-11T18:09:46.275Z,10.30
2018-06-11T18:12:13.778Z,6.55
2018-06-11T18:14:41.242Z,10.10
2018-06-11T18:17:08.772Z,17.92
2018-06-11T18:19:36.254Z,7.57
2018-06-11T18:22:03.678Z,11.80
2018-06-11T18:24:31.366Z,5.68
2018-06-11T18:26:58.794Z,12.45
2018-06-11T18:29:26.223Z,5.20
2018-06-11T18:31:53.744Z,6.78
2018-06-11T18:34:21.250Z,6.15
2018-06-11T18:36:48.697Z,8.23
2018-06-11T18:39:16.167Z,7.30
2018-06-11T18:41:44.949Z,7.12
2018-06-11T18:44:12.405Z,6.18
2018-06-11T18:46:40.557Z,7.80
2018-06-11T18:49:08.093Z,10.18
2018-06-11T18:51:35.491Z,7.55
2018-06-11T18:54:04.327Z,21.08
2018-06-11T18:56:32.633Z,8.02
2018-06-11T18:59:00.267Z,6.05
2018-06-11T19:01:27.787Z,13.62
2018-06-11T19:03:55.270Z,6.55
2018-06-11T19:06:22.948Z,8.73
2018-06-11T19:08:50.467Z,5.45
2018-06-11T19:11:17.938Z,8.48
2018-06-11T19:13:45.476Z,11.18
2018-06-11T19:16:12.966Z,7.72
2018-06-11T19:18:40.950Z,27.25
2018-06-11T19:21:08.503Z,10.50
2018-06-11T19:23:36.011Z,12.70
2018-06-11T19:26:03.618Z,11.02
2018-06-11T19:28:31.091Z,16.70
2018-06-11T19:30:58.527Z,8.07
2018-06-11T19:33:26.051Z,8.73
2018-06-11T19:35:53.616Z,6.20
2018-06-11T19:38:21.193Z,3.95
2018-06-11T19:40:48.720Z,10.93
2018-06-11T19:43:16.479Z,17.55
2018-06-11T19:45:44.047Z,10.90
2018-06-11T19:48:11.464Z,7.90
2018-06-11T19:50:38.950Z,8.57
2018-06-11T19:53:06.504Z,10.93
2018-06-11T19:55:34.025Z,6.50
2018-06-11T19:58:01.704Z,8.57
2018-06-11T20:00:29.300Z,5.72
2018-06-11T20:03:00.367Z,12.35
2018-06-11T20:05:27.874Z,4.40
2018-06-11T20:07:55.449Z,7.62
2018-06-11T20:10:22.992Z,3.83
2018-06-11T20:12:50.498Z,3.58
2018-06-11T20:15:18.036Z,8.93
2018-06-11T20:17:46.454Z,10.30
2018-06-11T20:20:13.866Z,3.00
2018-06-11T20:22:41.334Z,9.77
2018-06-11T20:25:08.884Z,7.57
2018-06-11T20:27:36.520Z,4.53
2018-06-11T20:30:06.482Z,2.95
2018-06-11T20:32:34.378Z,7.18
2018-06-11T20:35:01.835Z,5.30
2018-06-11T20:37:29.292Z,4.37
2018-06-11T20:39:57.422Z,5.30
2018-06-11T20:42:24.849Z,5.50
2018-06-11T20:44:52.407Z,7.15
2018-06-11T20:47:19.847Z,3.83
2018-06-11T20:49:47.387Z,4.12
2018-06-11T20:52:15.198Z,7.45
2018-06-11T20:54:42.767Z,2.60
2018-06-11T20:57:10.223Z,3.60
2018-06-11T20:59:37.747Z,5.37
2018-06-11T21:02:05.155Z,3.28
2018-06-11T21:04:32.681Z,5.53
2018-06-11T21:07:01.100Z,2.85
2018-06-11T21:09:28.579Z,4.47
2018-06-11T21:11:56.071Z,4.55
2018-06-11T21:14:23.523Z,8.18
2018-06-11T21:16:51.012Z,4.20
2018-06-11T21:19:18.512Z,5.22
2018-06-11T21:21:45.985Z,2.85
2018-06-11T21:24:13.502Z,4.30
2018-06-11T21:26:40.926Z,7.87
2018-06-11T21:29:15.844Z,4.10
2018-06-11T21:31:43.383Z,3.17
2018-06-11T21:34:12.992Z,4.87
2018-06-11T21:36:40.508Z,4.28
2018-06-11T21:39:07.946Z,2.75
2018-06-11T21:41:35.470Z,4.55
2018-06-11T21:44:05.605Z,2.92
2018-06-11T21:46:35.442Z,4.32
2018-06-11T21:49:03.769Z,5.35
2018-06-11T21:51:31.277Z,2.80
2018-06-11T21:53:58.749Z,7.07
2018-06-11T21:56:26.287Z,3.28
2018-06-11T21:58:53.803Z,4.35
2018-06-11T22:01:21.435Z,9.13
2018-06-11T22:03:49.071Z,5.57
2018-06-11T22:06:16.376Z,7.43
2018-06-11T22:08:43.836Z,4.62
2018-06-11T22:11:11.323Z,3.53
2018-06-11T22:13:38.844Z,4.05
2018-06-11T22:16:06.450Z,6.93
2018-06-11T22:18:34.081Z,12.65
2018-06-11T22:21:01.548Z,3.58
2018-06-11T22:23:29.106Z,5.50
2018-06-11T22:25:56.517Z,4.60
2018-06-11T22:28:23.949Z,4.40
2018-06-11T22:30:51.364Z,8.00
2018-06-11T22:33:18.794Z,4.35
2018-06-11T22:35:46.267Z,3.37
2018-06-11T22:38:13.759Z,3.35
2018-06-11T22:40:41.194Z,5.82
2018-06-11T22:43:08.586Z,3.05
2018-06-11T22:45:36.039Z,4.47
2018-06-11T22:48:04.040Z,5.20
2018-06-11T22:50:31.446Z,6.70
2018-06-11T22:52:59.323Z,9.13
2018-06-11T22:55:26.749Z,7.22
2018-06-11T22:57:54.314Z,3.87
2018-06-11T23:00:25.369Z,3.10
2018-06-11T23:02:52.862Z,5.70
2018-06-11T23:05:21.152Z,4.40
2018-06-11T23:07:48.561Z,5.75
2018-06-11T23:10:15.991Z,7.40
2018-06-11T23:12:44.676Z,3.90
2018-06-11T23:15:12.094Z,4.95
2018-06-11T23:17:39.602Z,4.87
2018-06-11T23:20:07.676Z,3.72
2018-06-11T23:22:35.222Z,12.80
2018-06-11T23:25:02.668Z,2.47
2018-06-11T23:27:30.818Z,6.12
2018-06-11T23:29:58.244Z,3.00
2018-06-11T23:32:25.646Z,3.45
2018-06-11T23:34:55.028Z,2.87
2018-06-11T23:37:22.446Z,3.78
2018-06-11T23:39:49.858Z,4.70
2018-06-11T23:42:17.311Z,4.53
2018-06-11T23:44:45.342Z,2.92
2018-06-11T23:47:12.778Z,3.78
2018-06-11T23:49:40.208Z,4.75
2018-06-11T23:52:07.650Z,3.78
2018-06-11T23:54:35.168Z,5.80
2018-06-11T23:57:03.001Z,4.00
2018-06-11T23:59:30.470Z,3.00
